createdAt,value
2018-01-30T00:00:17.561Z,89.04
2018-01-30T00:02:45.881Z,89.20
2018-01-30T00:05:14.223Z,88.92
2018-01-30T00:07:42.529Z,88.33
2018-01-30T00:10:10.865Z,88.60
2018-01-30T00:12:39.181Z,89.11
2018-01-30T00:15:07.509Z,89.43
2018-01-30T00:17:35.825Z,89.82
2018-01-30T00:20:04.161Z,89.84
2018-01-30T00:22:32.468Z,89.10
2018-01-30T00:25:00.810Z,88.94
2018-01-30T00:27:29.126Z,88.96
2018-01-30T00:29:57.457Z,88.95
2018-01-30T00:32:25.768Z,88.62
2018-01-30T00:34:54.110Z,88.35
2018-01-30T00:37:22.428Z,88.37
2018-01-30T00:39:50.762Z,88.46
2018-01-30T00:42:19.081Z,88.54
2018-01-30T00:44:47.406Z,88.79
2018-01-30T00:47:15.721Z,88.41
2018-01-30T00:49:44.062Z,88.36
2018-01-30T00:52:12.374Z,88.35
2018-01-30T00:54:40.711Z,88.29
2018-01-30T00:57:09.025Z,88.56
2018-01-30T00:59:37.358Z,88.53
2018-01-30T01:02:05.675Z,88.30
2018-01-30T01:04:34.014Z,88.27
2018-01-30T01:07:02.333Z,88.62
2018-01-30T01:09:30.669Z,88.30
2018-01-30T01:11:58.985Z,88.25
2018-01-30T01:14:27.325Z,88.72
2018-01-30T01:16:55.645Z,88.73
2018-01-30T01:19:23.985Z,88.85
2018-01-30T01:21:52.310Z,88.75
2018-01-30T01:24:20.650Z,88.64
2018-01-30T01:26:48.965Z,88.32
2018-01-30T01:29:17.311Z,87.94
2018-01-30T01:31:45.719Z,87.50
2018-01-30T01:34:14.034Z,87.29
2018-01-30T01:36:42.347Z,87.09
2018-01-30T01:39:10.687Z,87.22
2018-01-30T01:41:39.001Z,87.24
2018-01-30T01:44:07.347Z,87.24
2018-01-30T01:46:35.657Z,87.25
2018-01-30T01:49:03.998Z,87.77
2018-01-30T01:51:32.318Z,87.35
2018-01-30T01:54:00.657Z,86.97
2018-01-30T01:56:28.974Z,86.91
2018-01-30T01:58:57.288Z,86.58
2018-01-30T02:01:25.629Z,86.40
2018-01-30T02:03:53.949Z,86.25
2018-01-30T02:06:22.293Z,86.25
2018-01-30T02:08:50.609Z,85.87
2018-01-30T02:11:18.953Z,86.14
2018-01-30T02:13:47.273Z,86.37
2018-01-30T02:16:15.605Z,86.65
2018-01-30T02:18:43.917Z,86.71
2018-01-30T02:21:12.262Z,86.99
2018-01-30T02:23:40.578Z,87.29
2018-01-30T02:26:08.909Z,87.41
2018-01-30T02:28:37.230Z,87.71
2018-01-30T02:31:05.569Z,87.73
2018-01-30T02:33:33.886Z,87.60
2018-01-30T02:36:02.229Z,87.64
2018-01-30T02:38:30.611Z,87.45
2018-01-30T02:40:58.894Z,87.79
2018-01-30T02:43:27.213Z,87.23
2018-01-30T02:45:55.557Z,87.38
2018-01-30T02:48:23.878Z,87.29
2018-01-30T02:50:52.213Z,87.71
2018-01-30T02:53:20.528Z,87.47
2018-01-30T03:25:27.373Z,88.71
2018-01-30T03:27:55.693Z,89.11
2018-01-30T03:30:24.035Z,89.44
2018-01-30T03:32:52.350Z,89.66
2018-01-30T03:35:20.688Z,89.79
2018-01-30T03:37:49.010Z,89.51
2018-01-30T03:40:17.357Z,89.79
2018-01-30T03:42:45.677Z,89.93
2018-01-30T03:45:14.013Z,90.27
2018-01-30T03:47:42.333Z,90.19
2018-01-30T03:50:10.675Z,90.11
2018-01-30T03:52:38.988Z,90.24
2018-01-30T03:55:07.305Z,90.32
2018-01-30T03:57:35.636Z,90.24
2018-01-30T04:00:03.969Z,90.37
2018-01-30T04:02:32.289Z,90.19
2018-01-30T04:05:00.605Z,90.12
2018-01-30T04:07:28.949Z,90.33
2018-01-30T04:09:57.261Z,90.42
2018-01-30T04:12:25.602Z,90.38
2018-01-30T04:14:53.921Z,90.20
2018-01-30T04:17:22.260Z,90.17
2018-01-30T04:19:50.586Z,90.11
2018-01-30T04:22:18.920Z,90.26
2018-01-30T04:24:47.237Z,90.52
2018-01-30T04:27:15.578Z,90.45
2018-01-30T04:29:43.897Z,89.96
2018-01-30T04:32:12.237Z,89.75
2018-01-30T04:34:40.552Z,89.71
2018-01-30T04:37:08.889Z,89.79
2018-01-30T04:39:38.013Z,89.69
2018-01-30T04:42:06.364Z,89.72
2018-01-30T04:44:34.665Z,89.60
2018-01-30T04:47:03.010Z,89.62
2018-01-30T04:49:31.321Z,89.48
2018-01-30T04:51:59.657Z,89.49
2018-01-30T04:54:27.977Z,89.45
2018-01-30T04:56:56.321Z,89.69
2018-01-30T04:59:24.634Z,89.74
2018-01-30T05:01:52.974Z,89.30
2018-01-30T05:04:21.286Z,89.23
2018-01-30T05:06:49.628Z,89.37
2018-01-30T05:09:17.949Z,89.05
2018-01-30T05:11:46.280Z,88.84
2018-01-30T05:14:14.597Z,89.03
2018-01-30T05:16:42.933Z,88.88
2018-01-30T05:19:11.249Z,88.86
2018-01-30T05:21:39.585Z,88.73
2018-01-30T05:24:07.905Z,88.65
2018-01-30T05:26:36.245Z,89.07
2018-01-30T05:29:04.566Z,89.08
2018-01-30T05:31:32.898Z,89.00
2018-01-30T05:34:01.214Z,88.91
2018-01-30T05:36:29.553Z,89.00
2018-01-30T05:38:57.868Z,89.16
2018-01-30T05:41:26.209Z,89.18
2018-01-30T05:43:54.529Z,89.28
2018-01-30T05:46:22.869Z,89.48
2018-01-30T05:48:51.188Z,89.82
2018-01-30T05:51:19.529Z,89.85
2018-01-30T05:53:47.849Z,89.75
2018-01-30T05:56:16.172Z,89.92
2018-01-30T05:58:44.517Z,89.97
2018-01-30T06:01:12.833Z,90.06
2018-01-30T06:03:41.173Z,90.11
2018-01-30T06:06:09.531Z,89.98
2018-01-30T06:08:37.837Z,90.24
2018-01-30T06:11:06.156Z,90.37
2018-01-30T06:13:34.504Z,90.55
2018-01-30T06:16:02.841Z,90.63
2018-01-30T06:18:31.189Z,90.78
2018-01-30T06:20:59.509Z,90.75
2018-01-30T06:23:27.849Z,90.74
2018-01-30T06:25:56.282Z,91.13
2018-01-30T06:28:24.581Z,91.14
2018-01-30T06:30:52.901Z,91.46
2018-01-30T06:33:21.246Z,91.63
2018-01-30T06:35:49.573Z,91.63
2018-01-30T06:38:17.914Z,91.44
2018-01-30T06:40:46.233Z,91.71
2018-01-30T06:43:14.581Z,91.72
2018-01-30T06:45:42.906Z,91.74
2018-01-30T06:48:11.253Z,91.42
2018-01-30T06:50:39.569Z,92.17
2018-01-30T06:53:07.941Z,91.77
2018-01-30T06:55:36.296Z,91.57
2018-01-30T06:58:04.637Z,91.52
2018-01-30T07:00:32.953Z,91.74
2018-01-30T07:03:01.293Z,91.79
2018-01-30T07:05:29.622Z,91.91
2018-01-30T07:07:57.965Z,91.89
2018-01-30T07:10:28.258Z,92.01
2018-01-30T07:12:56.798Z,92.26
2018-01-30T07:15:25.125Z,92.45
2018-01-30T07:17:53.818Z,92.60
2018-01-30T07:20:22.133Z,92.78
2018-01-30T07:22:50.474Z,92.69
2018-01-30T07:25:18.797Z,92.85
2018-01-30T07:27:47.136Z,92.82
2018-01-30T07:30:15.466Z,92.85
2018-01-30T07:32:43.802Z,92.71
2018-01-30T07:35:12.129Z,92.58
2018-01-30T07:37:41.435Z,92.46
2018-01-30T07:40:09.716Z,92.29
2018-01-30T07:42:38.061Z,92.07
2018-01-30T07:45:06.389Z,91.93
2018-01-30T07:47:34.728Z,91.85
2018-01-30T07:50:03.045Z,91.92
2018-01-30T07:52:31.385Z,91.97
2018-01-30T07:54:59.697Z,91.92
2018-01-30T07:57:28.040Z,91.71
2018-01-30T07:59:56.354Z,91.60
2018-01-30T08:02:24.677Z,91.85
2018-01-30T08:04:53.022Z,91.52
2018-01-30T08:07:21.336Z,91.72
2018-01-30T08:09:49.685Z,91.62
2018-01-30T08:12:18.001Z,91.43
2018-01-30T08:14:46.336Z,91.61
2018-01-30T08:17:14.668Z,91.60
2018-01-30T08:19:48.894Z,91.66
2018-01-30T08:22:20.414Z,91.34
2018-01-30T08:24:48.758Z,91.34
2018-01-30T08:27:17.076Z,91.48
2018-01-30T08:29:45.418Z,91.53
2018-01-30T08:32:14.598Z,91.42
2018-01-30T08:34:42.942Z,91.14
2018-01-30T08:37:11.266Z,91.13
2018-01-30T08:39:39.606Z,91.13
2018-01-30T08:42:08.249Z,90.44
2018-01-30T08:44:36.589Z,90.38
2018-01-30T08:47:04.913Z,90.47
2018-01-30T08:49:33.253Z,90.91
2018-01-30T08:52:01.572Z,90.91
2018-01-30T08:54:29.917Z,91.28
2018-01-30T08:56:58.266Z,91.04
2018-01-30T08:59:26.598Z,91.12
2018-01-30T09:01:54.913Z,90.98
2018-01-30T09:04:23.253Z,90.98
2018-01-30T09:06:51.573Z,91.07
2018-01-30T09:09:19.913Z,91.08
2018-01-30T09:11:48.238Z,90.79
2018-01-30T09:14:16.577Z,90.45
2018-01-30T09:16:44.903Z,90.66
2018-01-30T09:19:13.245Z,90.66
2018-01-30T09:21:41.566Z,90.52
2018-01-30T09:24:09.908Z,90.06
2018-01-30T09:26:38.229Z,89.99
2018-01-30T09:29:06.573Z,89.56
2018-01-30T09:31:34.901Z,88.89
2018-01-30T09:34:03.237Z,88.58
2018-01-30T09:36:31.558Z,88.43
2018-01-30T09:38:59.897Z,88.10
2018-01-30T09:41:28.218Z,87.59
2018-01-30T09:43:56.564Z,87.25
2018-01-30T09:46:24.881Z,87.44
2018-01-30T09:48:53.223Z,87.74
2018-01-30T09:51:21.537Z,87.79
2018-01-30T09:53:49.882Z,87.98
2018-01-30T09:56:18.202Z,88.08
2018-01-30T09:58:46.550Z,89.11
2018-01-30T10:01:14.870Z,89.73
2018-01-30T10:03:43.230Z,89.98
2018-01-30T10:06:11.533Z,89.72
2018-01-30T10:08:39.877Z,89.89
2018-01-30T10:11:08.217Z,89.43
2018-01-30T10:13:36.541Z,88.76
2018-01-30T10:16:04.891Z,89.15
2018-01-30T10:18:33.210Z,88.39
2018-01-30T10:21:01.550Z,88.40
2018-01-30T10:23:29.870Z,87.89
2018-01-30T10:25:58.246Z,87.95
2018-01-30T10:28:26.541Z,87.84
2018-01-30T10:30:54.875Z,87.29
2018-01-30T10:33:23.873Z,87.19
2018-01-30T10:35:52.209Z,87.30
2018-01-30T10:38:20.533Z,88.03
2018-01-30T10:40:48.878Z,87.60
2018-01-30T10:43:17.206Z,87.45
2018-01-30T10:45:45.549Z,86.44
2018-01-30T10:48:13.865Z,86.23
2018-01-30T10:50:42.205Z,85.93
2018-01-30T10:53:10.525Z,85.85
2018-01-30T10:55:38.865Z,86.12
2018-01-30T10:58:07.189Z,85.31
2018-01-30T11:00:35.540Z,85.07
2018-01-30T11:03:03.857Z,84.26
2018-01-30T11:05:32.201Z,84.05
2018-01-30T11:08:00.529Z,84.13
2018-01-30T11:10:28.869Z,84.16
2018-01-30T11:12:58.468Z,83.88
2018-01-30T11:15:27.113Z,83.25
2018-01-30T11:17:55.436Z,83.05
2018-01-30T11:20:23.777Z,82.29
2018-01-30T11:22:52.097Z,81.68
2018-01-30T11:25:20.442Z,81.62
2018-01-30T11:27:48.761Z,82.49
2018-01-30T11:30:17.105Z,81.74
2018-01-30T11:32:45.894Z,82.10
2018-01-30T11:35:14.233Z,82.06
2018-01-30T11:37:42.557Z,81.87
2018-01-30T11:40:10.904Z,81.01
2018-01-30T11:42:39.218Z,80.59
2018-01-30T11:45:07.565Z,80.31
2018-01-30T11:47:35.882Z,80.58
2018-01-30T11:50:04.227Z,80.27
2018-01-30T11:52:32.669Z,79.89
2018-01-30T11:55:01.011Z,79.89
2018-01-30T11:57:29.328Z,79.08
2018-01-30T11:59:57.669Z,79.59
2018-01-30T12:02:25.993Z,79.15
2018-01-30T12:04:54.339Z,78.67
2018-01-30T12:07:22.662Z,79.78
2018-01-30T12:09:51.009Z,79.79
2018-01-30T12:12:20.344Z,79.67
2018-01-30T12:14:48.666Z,79.62
2018-01-30T12:17:17.009Z,79.48
2018-01-30T12:19:45.333Z,79.12
2018-01-30T12:22:13.678Z,78.71
2018-01-30T12:24:42.001Z,79.05
2018-01-30T12:27:10.345Z,80.67
2018-01-30T12:29:38.665Z,79.79
2018-01-30T12:32:07.006Z,79.31
2018-01-30T12:34:35.326Z,79.13
2018-01-30T12:37:03.669Z,78.25
2018-01-30T12:39:31.990Z,78.21
2018-01-30T12:42:00.334Z,78.75
2018-01-30T12:44:28.656Z,77.70
2018-01-30T12:46:56.997Z,78.06
2018-01-30T12:49:25.340Z,77.12
2018-01-30T12:51:53.681Z,77.21
2018-01-30T12:54:22.025Z,76.60
2018-01-30T12:56:50.350Z,76.52
2018-01-30T12:59:18.671Z,75.99
2018-01-30T13:01:47.027Z,75.73
2018-01-30T13:04:15.341Z,76.15
2018-01-30T13:06:43.685Z,76.07
2018-01-30T13:09:12.370Z,76.32
2018-01-30T13:11:40.885Z,75.57
2018-01-30T13:14:09.245Z,75.59
2018-01-30T13:16:37.620Z,76.47
2018-01-30T13:19:05.920Z,76.19
2018-01-30T13:21:34.305Z,76.93
2018-01-30T13:24:02.621Z,77.79
2018-01-30T13:26:31.897Z,76.61
2018-01-30T13:29:00.209Z,77.37
2018-01-30T13:31:28.550Z,76.82
2018-01-30T13:33:56.874Z,75.90
2018-01-30T13:36:26.200Z,76.78
2018-01-30T13:38:54.535Z,77.28
2018-01-30T13:41:22.868Z,77.95
2018-01-30T13:43:51.186Z,78.46
2018-01-30T13:46:19.529Z,78.88
2018-01-30T13:48:47.858Z,78.84
2018-01-30T13:51:16.203Z,77.44
2018-01-30T13:53:44.537Z,78.11
2018-01-30T13:56:12.886Z,79.10
2018-01-30T13:58:41.205Z,80.06
2018-01-30T14:01:09.593Z,78.67
2018-01-30T14:03:37.913Z,79.13
2018-01-30T14:06:06.256Z,79.39
2018-01-30T14:08:34.581Z,79.48
2018-01-30T14:11:02.921Z,79.51
2018-01-30T14:13:31.245Z,78.39
2018-01-30T14:16:00.477Z,78.95
2018-01-30T14:18:28.821Z,79.30
2018-01-30T14:20:57.145Z,79.35
2018-01-30T14:23:31.008Z,79.12
2018-01-30T14:26:00.228Z,78.97
2018-01-30T14:28:29.049Z,79.20
2018-01-30T14:30:57.380Z,78.44
2018-01-30T14:33:26.322Z,79.88
2018-01-30T14:35:54.641Z,79.23
2018-01-30T14:38:22.986Z,78.58
2018-01-30T14:40:51.309Z,79.58
2018-01-30T14:43:19.650Z,80.02
2018-01-30T14:45:47.992Z,79.35
2018-01-30T14:48:16.342Z,79.72
2018-01-30T14:50:44.661Z,79.27
2018-01-30T14:53:13.953Z,79.25
2018-01-30T14:55:42.283Z,79.32
2018-01-30T14:58:10.638Z,79.71
2018-01-30T15:00:38.961Z,79.89
2018-01-30T15:03:07.308Z,79.35
2018-01-30T15:05:35.626Z,79.00
2018-01-30T15:08:06.158Z,79.56
2018-01-30T15:10:34.484Z,79.07
2018-01-30T15:13:02.830Z,78.78
2018-01-30T15:15:31.354Z,79.09
2018-01-30T15:17:59.754Z,79.20
2018-01-30T15:20:34.594Z,78.91
2018-01-30T15:23:06.849Z,79.43
2018-01-30T15:25:35.289Z,79.65
2018-01-30T15:28:03.642Z,79.82
2018-01-30T15:30:31.965Z,80.15
2018-01-30T15:33:00.305Z,80.28
2018-01-30T15:35:28.681Z,79.69
2018-01-30T15:37:57.233Z,79.35
2018-01-30T15:40:25.549Z,79.21
2018-01-30T15:42:53.895Z,79.07
2018-01-30T15:45:22.212Z,78.91
2018-01-30T15:47:50.558Z,79.25
2018-01-30T15:50:18.886Z,79.15
2018-01-30T15:52:47.225Z,79.56
2018-01-30T15:55:15.547Z,79.73
2018-01-30T15:57:45.597Z,79.33
2018-01-30T16:00:13.917Z,79.62
2018-01-30T16:02:42.270Z,79.53
2018-01-30T16:05:10.585Z,83.39
2018-01-30T16:07:38.932Z,79.46
2018-01-30T16:10:07.253Z,78.11
2018-01-30T16:12:37.580Z,78.06
2018-01-30T16:15:06.301Z,77.92
2018-01-30T16:17:34.638Z,77.89
2018-01-30T16:20:02.962Z,77.79
2018-01-30T16:22:31.308Z,77.20
2018-01-30T16:24:59.629Z,77.06
2018-01-30T16:27:27.973Z,77.33
2018-01-30T16:29:56.302Z,76.69
2018-01-30T16:32:24.650Z,76.93
2018-01-30T16:34:52.964Z,77.40
2018-01-30T16:37:21.373Z,77.62
2018-01-30T16:39:49.645Z,78.24
2018-01-30T16:42:17.965Z,78.96
2018-01-30T16:44:46.314Z,78.51
2018-01-30T16:47:14.684Z,78.85
2018-01-30T16:49:43.022Z,79.35
2018-01-30T16:52:11.347Z,79.10
2018-01-30T16:54:39.697Z,79.08
2018-01-30T16:57:08.017Z,79.93
2018-01-30T16:59:36.361Z,79.99
2018-01-30T17:02:11.934Z,80.18
2018-01-30T17:04:48.339Z,80.78
2018-01-30T17:07:25.848Z,80.54
2018-01-30T17:09:56.163Z,80.54
2018-01-30T17:12:28.485Z,80.18
2018-01-30T17:14:56.825Z,79.32
2018-01-30T17:17:26.126Z,79.33
2018-01-30T17:19:55.869Z,80.50
2018-01-30T17:22:24.194Z,80.88
2018-01-30T17:24:52.536Z,80.62
2018-01-30T17:27:20.865Z,81.31
2018-01-30T17:29:49.205Z,81.16
2018-01-30T17:32:17.533Z,80.87
2018-01-30T17:34:45.882Z,80.35
2018-01-30T17:37:14.206Z,80.24
2018-01-30T17:39:43.457Z,79.92
2018-01-30T17:42:11.809Z,79.21
2018-01-30T17:44:40.153Z,78.95
2018-01-30T17:47:08.490Z,79.19
2018-01-30T17:49:36.829Z,78.74
2018-01-30T17:52:05.158Z,78.42
2018-01-30T17:54:33.510Z,78.81
2018-01-30T17:57:01.833Z,78.66
2018-01-30T17:59:30.180Z,78.81
2018-01-30T18:01:58.505Z,79.99
2018-01-30T18:04:26.858Z,80.67
2018-01-30T18:06:55.215Z,81.07
2018-01-30T18:09:23.551Z,81.02
2018-01-30T18:11:51.961Z,81.32
2018-01-30T18:14:20.310Z,82.44
2018-01-30T18:16:49.634Z,83.37
2018-01-30T18:19:18.921Z,82.70
2018-01-30T18:21:47.249Z,82.42
2018-01-30T18:24:16.260Z,83.03
2018-01-30T18:26:45.510Z,83.62
2018-01-30T18:29:13.854Z,84.00
2018-01-30T18:31:42.176Z,83.82
2018-01-30T18:34:10.546Z,83.90
2018-01-30T18:36:39.825Z,83.87
2018-01-30T18:39:08.177Z,84.11
2018-01-30T18:41:36.562Z,84.35
2018-01-30T18:44:04.914Z,83.86
2018-01-30T18:46:33.258Z,83.55
2018-01-30T18:49:01.610Z,83.42
2018-01-30T18:51:29.945Z,83.22
2018-01-30T18:53:58.302Z,83.04
2018-01-30T18:56:26.635Z,82.50
2018-01-30T18:58:55.025Z,82.73
2018-01-30T19:01:23.345Z,82.33
2018-01-30T19:03:51.693Z,81.37
2018-01-30T19:06:20.027Z,80.85
2018-01-30T19:08:48.381Z,80.49
2018-01-30T19:11:16.744Z,80.17
2018-01-30T19:13:45.082Z,80.02
2018-01-30T19:16:13.433Z,80.03
2018-01-30T19:18:41.765Z,80.62
2018-01-30T19:21:10.114Z,80.44
2018-01-30T19:23:38.446Z,80.41
2018-01-30T19:26:06.797Z,80.30
2018-01-30T19:28:35.125Z,80.22
2018-01-30T19:31:03.483Z,79.95
2018-01-30T19:33:31.825Z,80.18
2018-01-30T19:36:00.171Z,81.29
2018-01-30T19:38:28.824Z,82.63
2018-01-30T19:41:03.758Z,82.96
2018-01-30T19:43:32.122Z,83.49
2018-01-30T19:46:00.623Z,83.41
2018-01-30T19:48:34.970Z,84.13
2018-01-30T19:51:03.319Z,84.37
2018-01-30T19:53:31.644Z,84.69
2018-01-30T19:55:59.988Z,84.83
2018-01-30T19:58:28.318Z,85.10
2018-01-30T20:00:56.674Z,85.62
2018-01-30T20:03:24.996Z,86.05
2018-01-30T20:05:53.466Z,86.80
2018-01-30T20:08:21.795Z,87.09
2018-01-30T20:10:50.151Z,87.16
2018-01-30T20:13:18.469Z,87.40
2018-01-30T20:15:47.927Z,87.08
2018-01-30T20:18:21.185Z,86.82
2018-01-30T20:20:49.575Z,86.41
2018-01-30T20:23:23.443Z,85.74
2018-01-30T20:25:58.055Z,85.65
2018-01-30T20:28:31.907Z,84.80
2018-01-30T20:31:00.261Z,83.96
2018-01-30T20:33:28.625Z,83.61
2018-01-30T20:35:56.973Z,83.47
2018-01-30T20:38:25.297Z,82.85
2018-01-30T20:40:53.654Z,82.50
2018-01-30T20:43:26.621Z,82.21
2018-01-30T20:45:55.397Z,82.04
2018-01-30T20:48:24.884Z,82.02
2018-01-30T20:50:54.765Z,82.53
2018-01-30T20:53:25.278Z,82.32
2018-01-30T20:55:56.603Z,81.48
2018-01-30T20:58:24.928Z,81.16
2018-01-30T21:01:01.126Z,81.15
2018-01-30T21:03:33.597Z,80.98
2018-01-30T21:06:02.710Z,80.67
2018-01-30T21:08:39.413Z,80.80
2018-01-30T21:11:24.432Z,80.71
2018-01-30T21:13:54.145Z,80.70
2018-01-30T21:16:22.579Z,80.83
2018-01-30T21:18:50.911Z,81.09
2018-01-30T21:21:19.328Z,81.07
2018-01-30T21:23:47.666Z,80.99
2018-01-30T21:26:16.052Z,81.07
2018-01-30T21:29:02.033Z,81.18
2018-01-30T21:34:29.438Z,81.35
2018-01-30T21:37:03.769Z,81.45
2018-01-30T21:39:33.868Z,81.64
2018-01-30T21:42:03.034Z,81.74
2018-01-30T21:44:36.292Z,81.87
2018-01-30T21:47:04.813Z,81.82
2018-01-30T21:49:33.351Z,81.92
2018-01-30T21:52:01.782Z,82.17
2018-01-30T21:54:30.116Z,82.16
2018-01-30T21:56:58.417Z,82.39
2018-01-30T21:59:26.745Z,83.08
2018-01-30T22:01:55.094Z,83.26
2018-01-30T22:04:23.417Z,83.49
2018-01-30T22:06:51.766Z,83.84
2018-01-30T22:09:20.097Z,83.94
2018-01-30T22:11:48.441Z,84.57
2018-01-30T22:14:16.779Z,85.00
2018-01-30T22:16:45.125Z,84.97
2018-01-30T22:19:13.615Z,85.23
2018-01-30T22:21:42.055Z,85.35
2018-01-30T22:24:10.370Z,85.59
2018-01-30T22:26:39.628Z,86.09
2018-01-30T22:29:07.953Z,86.12
2018-01-30T22:31:36.309Z,86.73
2018-01-30T22:34:12.047Z,86.83
2018-01-30T22:36:51.032Z,86.61
2018-01-30T22:39:26.473Z,86.79
2018-01-30T22:41:59.876Z,86.50
2018-01-30T22:44:30.055Z,86.76
2018-01-30T22:46:56.637Z,86.60
